WAPP/AMQ METAR and TAF weather

Enter ICAO airport designator
Station Type Date Time Source
WAPP METAR 2022/01/29 13:00 UTC NOAA

WAPP 291300Z 34005KT 9999 SCT018 27/24 Q1009 NOSIG


Station Type Date Time Source
WAPP Decoded METAR 2022/01/29 13:00 UTC NOAA

Ambon / Pattimura, Indonesia (WAPP) 03-42S 128-05E 12M
Jan 29, 2022 - 08:00 AM EST / 2022.01.29 1300 UTC
Wind: from the NNW (340 degrees) at 6 MPH (5 KT):0
Visibility: greater than 7 mile(s):0
Sky conditions: partly cloudy
Temperature: 80 F (27 C)
Dew Point: 75 F (24 C)
Relative Humidity: 83%
Pressure (altimeter): 29.80 in. Hg (1009 hPa)
ob: WAPP 291300Z 34005KT 9999 SCT018 27/24 Q1009 NOSIG
cycle: 13

Station Type Date Time Source
WAPP TAF 2015/06/30 00:57 UTC NOAA

TAF WAPP 302300Z 0100/0124 34006KT 9999 SCT018
TEMPO 0101/0104 7000 -RA BKN017
BECMG 0105/0107 21006KT
BECMG 0109/0111 32006KT

Example: see airport list